Time;durP1;ratioP1;P1;durP2;ratioP2;P2;SDS_P1;SDS_P2;PMS_P1;PMS_P2;Temp;Humidity;BMP_temperature;BMP_pressure;BME280_temperature;BME280_humidity;BME280_pressure;Samples;Min_cycle;Max_cycle;Signal;HPM_P1;HPM_P2
2022/03/30 00:01:48;;;;;;;47.00;24.50;;;8.20;99.90;;;;;;5114351;28;20210;-69
2022/03/30 00:04:15;;;;;;;44.70;24.23;;;8.30;99.90;;;;;;5114770;28;20210;-68
2022/03/30 00:06:42;;;;;;;43.20;23.93;;;8.20;99.90;;;;;;5114705;28;20243;-69
2022/03/30 00:09:10;;;;;;;46.00;24.03;;;8.30;99.90;;;;;;5114912;28;20264;-69
2022/03/30 00:11:37;;;;;;;43.80;23.57;;;8.30;99.90;;;;;;5114625;28;20255;-70
2022/03/30 00:14:04;;;;;;;40.83;22.37;;;8.30;99.90;;;;;;5114769;28;20238;-69
2022/03/30 00:16:33;;;;;;;44.37;24.00;;;8.30;99.90;;;;;;5114809;28;20218;-69
2022/03/30 00:19:00;;;;;;;44.40;24.17;;;8.30;99.90;;;;;;5114718;28;20207;-69
2022/03/30 00:21:27;;;;;;;46.33;24.47;;;8.30;99.90;;;;;;5114834;28;20235;-68
2022/03/30 00:23:54;;;;;;;41.20;22.73;;;8.30;99.90;;;;;;5114221;28;20330;-68
2022/03/30 00:26:23;;;;;;;46.33;25.30;;;8.30;99.90;;;;;;5114531;28;20246;-68
2022/03/30 00:28:49;;;;;;;42.83;23.43;;;8.40;99.90;;;;;;5114558;28;20302;-67
2022/03/30 00:31:18;;;;;;;41.73;23.47;;;8.30;99.90;;;;;;5114152;28;20334;-67
2022/03/30 00:33:46;;;;;;;41.53;22.90;;;8.30;99.90;;;;;;5114253;28;20235;-68
2022/03/30 00:36:13;;;;;;;45.50;23.20;;;8.40;99.90;;;;;;5114715;28;20672;-68
2022/03/30 00:38:40;;;;;;;37.43;21.27;;;8.40;99.90;;;;;;5114126;28;20293;-68
2022/03/30 00:41:07;;;;;;;36.30;21.10;;;8.30;99.90;;;;;;5114032;28;20247;-68
2022/03/30 00:43:35;;;;;;;34.90;19.67;;;8.30;99.90;;;;;;5114373;28;20638;-68
2022/03/30 00:46:02;;;;;;;42.43;23.37;;;8.20;99.90;;;;;;5114145;28;20626;-68
2022/03/30 00:48:29;;;;;;;43.57;22.97;;;8.20;99.90;;;;;;5114246;28;20711;-68
2022/03/30 00:50:56;;;;;;;42.50;23.60;;;8.20;99.90;;;;;;5113958;28;20627;-68
2022/03/30 00:53:23;;;;;;;37.03;21.80;;;8.20;99.90;;;;;;5114199;28;20234;-69
2022/03/30 00:55:53;;;;;;;39.60;22.47;;;8.20;99.90;;;;;;5114139;28;20637;-69
2022/03/30 00:58:21;;;;;;;54.63;27.30;;;8.10;99.90;;;;;;5114000;28;20203;-69
2022/03/30 01:00:50;;;;;;;46.87;26.40;;;8.10;99.90;;;;;;5114079;28;20227;-69
2022/03/30 01:03:17;;;;;;;50.47;26.33;;;8.00;99.90;;;;;;5113876;28;20606;-67
2022/03/30 01:05:44;;;;;;;47.67;26.50;;;8.00;99.90;;;;;;5113704;28;20297;-68
2022/03/30 01:08:11;;;;;;;47.37;27.90;;;8.10;99.90;;;;;;5113717;28;20207;-70
2022/03/30 01:10:38;;;;;;;48.20;27.60;;;8.10;99.90;;;;;;5113700;28;20315;-68
2022/03/30 01:13:07;;;;;;;49.47;27.23;;;8.10;99.90;;;;;;5112726;28;20568;-69
2022/03/30 01:15:34;;;;;;;43.37;25.80;;;8.00;99.90;;;;;;5113770;28;20553;-67
2022/03/30 01:18:03;;;;;;;33.17;18.73;;;8.10;99.90;;;;;;5113193;28;20298;-69
2022/03/30 01:20:30;;;;;;;39.07;18.70;;;8.10;99.90;;;;;;5113569;28;20203;-68
2022/03/30 01:22:58;;;;;;;40.50;20.93;;;8.10;99.90;;;;;;5113256;28;20806;-68
2022/03/30 01:25:26;;;;;;;40.60;20.77;;;8.20;99.90;;;;;;5113288;28;20188;-68
2022/03/30 01:27:53;;;;;;;39.87;21.60;;;8.30;99.90;;;;;;5112978;28;20223;-69
2022/03/30 01:33:06;;;;;;;37.67;21.43;;;8.40;99.90;;;;;;5113285;28;20187;-68
2022/03/30 01:35:34;;;;;;;37.03;20.40;;;8.40;99.90;;;;;;5113173;28;20661;-68
2022/03/30 01:38:03;;;;;;;39.77;21.77;;;8.50;99.90;;;;;;5113036;28;20656;-68
2022/03/30 01:40:31;;;;;;;47.77;24.77;;;8.50;99.90;;;;;;5113281;28;20702;-68
2022/03/30 01:42:58;;;;;;;42.87;24.60;;;8.60;99.90;;;;;;5112986;28;20217;-68
2022/03/30 01:45:25;;;;;;;47.63;26.53;;;8.60;99.90;;;;;;5113054;28;20235;-69
2022/03/30 01:47:55;;;;;;;49.43;25.87;;;8.60;99.90;;;;;;5112599;28;20260;-68
2022/03/30 01:50:22;;;;;;;45.43;24.00;;;8.60;99.90;;;;;;5112989;28;20235;-69
2022/03/30 01:52:50;;;;;;;41.80;22.77;;;8.50;99.90;;;;;;5112519;28;20246;-69
2022/03/30 01:55:18;;;;;;;44.63;24.00;;;8.50;99.90;;;;;;5112775;28;20211;-69
2022/03/30 01:57:46;;;;;;;44.67;24.07;;;8.60;99.90;;;;;;5112873;28;20235;-68
2022/03/30 02:00:17;;;;;;;43.53;24.10;;;8.60;99.90;;;;;;5112759;28;20294;-69
2022/03/30 02:02:46;;;;;;;44.27;23.90;;;8.60;99.90;;;;;;5112807;28;20694;-69
2022/03/30 02:05:13;;;;;;;46.13;23.50;;;8.60;99.90;;;;;;5112571;28;20261;-66
2022/03/30 02:07:40;;;;;;;45.83;24.33;;;8.60;99.90;;;;;;5112698;28;20635;-68
2022/03/30 02:10:09;;;;;;;50.27;24.57;;;8.60;99.90;;;;;;5112719;28;20593;-68
2022/03/30 02:12:38;;;;;;;46.00;23.87;;;8.60;99.90;;;;;;5112770;28;20579;-69
2022/03/30 02:15:06;;;;;;;39.90;23.27;;;8.60;99.90;;;;;;5112543;28;20242;-69
2022/03/30 02:17:34;;;;;;;45.70;24.73;;;8.60;99.90;;;;;;5112810;28;20241;-69
2022/03/30 02:20:00;;;;;;;41.10;24.70;;;8.60;99.90;;;;;;5112564;28;20988;-69
2022/03/30 02:22:27;;;;;;;44.30;23.97;;;8.60;99.90;;;;;;5112128;28;20199;-68
2022/03/30 02:24:54;;;;;;;38.10;24.03;;;8.60;99.90;;;;;;5111796;28;20277;-67
2022/03/30 02:27:22;;;;;;;43.30;23.17;;;8.50;99.90;;;;;;5112231;28;20267;-68
2022/03/30 02:29:52;;;;;;;39.70;24.17;;;8.50;99.90;;;;;;5112054;28;20253;-68
2022/03/30 02:32:19;;;;;;;40.70;23.33;;;8.50;99.90;;;;;;5112236;28;20246;-68
2022/03/30 02:34:46;;;;;;;39.53;23.23;;;8.50;99.90;;;;;;5112377;28;20634;-68
2022/03/30 02:37:14;;;;;;;43.77;24.30;;;8.50;99.90;;;;;;5112428;28;20290;-69
2022/03/30 02:39:41;;;;;;;43.23;23.97;;;8.50;99.90;;;;;;5112244;28;20227;-71
2022/03/30 02:42:08;;;;;;;39.03;23.10;;;8.50;99.90;;;;;;5112307;28;20648;-69
2022/03/30 02:44:36;;;;;;;47.03;25.90;;;8.50;99.90;;;;;;5112144;28;20637;-69
2022/03/30 02:47:06;;;;;;;45.63;24.83;;;8.50;99.90;;;;;;5112078;28;20236;-68
2022/03/30 02:49:33;;;;;;;48.90;26.47;;;8.40;99.90;;;;;;5112386;28;20234;-68
2022/03/30 02:52:00;;;;;;;43.07;23.83;;;8.40;99.90;;;;;;5111724;28;20254;-69
2022/03/30 02:54:27;;;;;;;38.30;22.90;;;8.40;99.90;;;;;;5112308;28;20239;-69
2022/03/30 02:56:54;;;;;;;44.43;23.73;;;8.40;99.90;;;;;;5111879;28;20239;-68
2022/03/30 02:59:21;;;;;;;39.17;22.67;;;8.40;99.90;;;;;;5112193;28;20286;-68
2022/03/30 03:01:48;;;;;;;38.97;22.33;;;8.40;99.90;;;;;;5112042;28;20214;-69
2022/03/30 03:04:17;;;;;;;41.13;23.37;;;8.40;99.90;;;;;;5112288;28;20231;-67
2022/03/30 03:06:44;;;;;;;40.77;23.47;;;8.40;99.90;;;;;;5112118;28;20239;-69
2022/03/30 03:09:11;;;;;;;40.90;23.80;;;8.40;99.90;;;;;;5111783;28;20245;-69
2022/03/30 03:11:38;;;;;;;40.00;23.97;;;8.40;99.90;;;;;;5111822;28;20302;-68
2022/03/30 03:14:07;;;;;;;41.93;23.90;;;8.40;99.90;;;;;;5112163;28;20235;-68
2022/03/30 03:16:34;;;;;;;41.27;23.73;;;8.40;99.90;;;;;;5111978;28;20199;-68
2022/03/30 03:19:01;;;;;;;41.93;24.10;;;8.40;99.90;;;;;;5111735;28;20199;-69
2022/03/30 03:21:30;;;;;;;41.40;23.73;;;8.40;99.90;;;;;;5112323;28;20298;-68
2022/03/30 03:23:57;;;;;;;41.87;24.53;;;8.40;99.90;;;;;;5111520;28;20278;-68
2022/03/30 03:26:23;;;;;;;53.70;25.73;;;8.40;99.90;;;;;;5111688;28;20239;-68
2022/03/30 03:28:50;;;;;;;46.20;25.30;;;8.40;99.90;;;;;;5111482;28;20226;-70
2022/03/30 03:31:17;;;;;;;45.47;25.47;;;8.30;99.90;;;;;;5111607;28;20343;-68
2022/03/30 03:33:45;;;;;;;46.00;25.03;;;8.20;99.90;;;;;;5111738;28;20246;-68
2022/03/30 03:36:11;;;;;;;46.17;25.13;;;8.20;99.90;;;;;;5113360;28;20239;-68
2022/03/30 03:38:40;;;;;;;52.37;29.47;;;8.10;99.90;;;;;;5115503;28;20238;-68
2022/03/30 03:41:07;;;;;;;52.87;28.63;;;8.00;99.90;;;;;;5115629;28;20234;-68
2022/03/30 03:43:34;;;;;;;55.33;29.50;;;7.90;99.90;;;;;;5115070;28;20246;-68
2022/03/30 03:46:01;;;;;;;54.20;29.60;;;7.80;99.90;;;;;;5115125;28;20207;-69
2022/03/30 03:48:28;;;;;;;55.53;29.63;;;7.80;99.90;;;;;;5115420;28;20655;-67
2022/03/30 03:50:55;;;;;;;56.80;31.13;;;7.80;99.90;;;;;;5115118;28;20293;-68
2022/03/30 03:53:22;;;;;;;54.03;29.87;;;7.80;99.90;;;;;;5115235;28;20261;-69
2022/03/30 03:55:50;;;;;;;55.43;28.90;;;7.80;99.90;;;;;;5115085;28;20682;-68
2022/03/30 03:58:17;;;;;;;60.60;28.67;;;7.90;99.90;;;;;;5115237;28;20606;-68
2022/03/30 04:00:45;;;;;;;51.50;28.90;;;7.90;99.90;;;;;;5114778;28;20234;-68
2022/03/30 04:03:12;;;;;;;60.87;31.60;;;7.90;99.90;;;;;;5115168;28;20723;-68
2022/03/30 04:05:40;;;;;;;57.67;32.03;;;7.80;99.90;;;;;;5114672;28;20303;-69
2022/03/30 04:08:07;;;;;;;57.77;29.90;;;7.80;99.90;;;;;;5115059;28;20203;-67
2022/03/30 04:10:34;;;;;;;56.03;31.67;;;7.80;99.90;;;;;;5114834;28;20629;-69
2022/03/30 04:13:04;;;;;;;53.83;30.13;;;7.70;99.90;;;;;;5114934;28;20619;-68
2022/03/30 04:15:31;;;;;;;54.53;30.33;;;7.80;99.90;;;;;;5114540;28;20192;-68
2022/03/30 04:17:58;;;;;;;50.60;26.97;;;7.80;99.90;;;;;;5114787;28;20246;-68
2022/03/30 04:20:25;;;;;;;53.90;29.80;;;7.80;99.90;;;;;;5114566;28;20199;-68
2022/03/30 04:22:52;;;;;;;53.63;29.27;;;7.80;99.90;;;;;;5114476;28;20652;-67
2022/03/30 04:25:19;;;;;;;57.67;31.43;;;7.80;99.90;;;;;;5114662;28;20223;-68
2022/03/30 04:27:47;;;;;;;64.13;32.87;;;7.90;99.90;;;;;;5114518;28;20262;-68
2022/03/30 04:30:16;;;;;;;52.90;29.47;;;7.90;99.90;;;;;;5114479;28;20290;-69
2022/03/30 04:32:44;;;;;;;50.70;29.67;;;7.90;99.90;;;;;;5114164;28;20258;-69
2022/03/30 04:35:12;;;;;;;59.93;32.27;;;8.00;99.90;;;;;;5114483;28;20204;-70
2022/03/30 04:37:39;;;;;;;61.07;33.77;;;8.00;99.90;;;;;;5114306;28;20210;-68
2022/03/30 04:40:08;;;;;;;54.73;30.43;;;7.90;99.90;;;;;;5114339;28;20242;-71
2022/03/30 04:42:35;;;;;;;56.70;32.33;;;7.90;99.90;;;;;;5114190;28;20672;-69
2022/03/30 04:45:02;;;;;;;62.73;33.53;;;7.90;99.90;;;;;;5113998;28;20239;-68
2022/03/30 04:47:31;;;;;;;72.83;36.60;;;7.90;99.90;;;;;;5114041;28;20234;-70
2022/03/30 04:49:58;;;;;;;63.93;35.20;;;7.90;99.90;;;;;;5113971;28;20260;-68
2022/03/30 04:52:25;;;;;;;57.77;34.30;;;7.90;99.90;;;;;;5113603;28;20415;-67
2022/03/30 04:54:52;;;;;;;65.07;35.37;;;7.90;99.90;;;;;;5113806;28;20242;-69
2022/03/30 04:57:19;;;;;;;60.63;34.37;;;7.90;99.90;;;;;;5114023;28;20629;-69
2022/03/30 04:59:45;;;;;;;66.63;36.07;;;7.90;99.90;;;;;;5113687;28;20239;-68
2022/03/30 05:02:12;;;;;;;59.20;32.03;;;7.90;99.90;;;;;;5113588;28;20195;-68
2022/03/30 05:04:41;;;;;;;61.57;33.63;;;8.00;99.90;;;;;;5113519;28;20207;-68
2022/03/30 05:07:07;;;;;;;66.40;34.87;;;8.00;99.90;;;;;;5113859;28;20684;-69
2022/03/30 05:09:34;;;;;;;75.33;38.17;;;8.10;99.90;;;;;;5113595;28;20631;-68
2022/03/30 05:12:02;;;;;;;69.73;37.23;;;8.10;99.90;;;;;;5113299;28;20306;-68
2022/03/30 05:14:29;;;;;;;72.20;36.83;;;8.20;99.90;;;;;;5113260;28;20276;-68
2022/03/30 05:16:55;;;;;;;74.97;39.50;;;8.30;99.90;;;;;;5113626;28;20766;-68
2022/03/30 05:19:22;;;;;;;74.17;39.23;;;8.30;99.90;;;;;;5113376;28;20239;-68
2022/03/30 05:21:50;;;;;;;88.10;44.80;;;8.30;99.90;;;;;;5113260;28;20246;-68
2022/03/30 05:24:17;;;;;;;94.27;44.77;;;8.30;99.90;;;;;;5113082;28;20319;-69
2022/03/30 05:26:45;;;;;;;79.03;41.60;;;8.30;99.90;;;;;;5113227;28;20772;-69
2022/03/30 05:29:12;;;;;;;80.20;40.03;;;8.30;99.90;;;;;;5113378;28;20203;-69
2022/03/30 05:31:39;;;;;;;72.90;36.73;;;8.30;99.90;;;;;;5112892;28;20229;-69
2022/03/30 05:34:06;;;;;;;79.97;36.93;;;8.30;99.90;;;;;;5113353;28;20295;-69
2022/03/30 05:36:33;;;;;;;73.13;37.17;;;8.30;99.90;;;;;;5112870;28;20243;-68
2022/03/30 05:39:02;;;;;;;70.60;36.53;;;8.40;99.90;;;;;;5113336;28;20313;-69
2022/03/30 05:41:29;;;;;;;72.50;37.60;;;8.40;99.90;;;;;;5112720;28;20203;-67
2022/03/30 05:43:56;;;;;;;73.23;36.70;;;8.50;99.90;;;;;;5112980;28;20664;-69
2022/03/30 05:46:23;;;;;;;76.43;36.53;;;8.60;99.90;;;;;;5112550;28;20203;-68
2022/03/30 05:48:49;;;;;;;81.37;38.77;;;8.60;99.90;;;;;;5113058;28;20299;-69
2022/03/30 05:51:16;;;;;;;70.73;38.00;;;8.70;99.90;;;;;;5112653;28;20292;-69
2022/03/30 05:53:43;;;;;;;80.30;37.33;;;8.70;99.90;;;;;;5112860;28;20258;-69
2022/03/30 05:56:12;;;;;;;77.03;37.67;;;8.80;99.90;;;;;;5112663;28;20239;-68
2022/03/30 05:58:38;;;;;;;67.60;35.63;;;8.80;99.90;;;;;;5112400;28;20239;-69
2022/03/30 06:01:06;;;;;;;81.07;38.03;;;8.80;99.90;;;;;;5112457;28;20238;-69
2022/03/30 06:03:37;;;;;;;72.00;37.27;;;8.90;99.90;;;;;;5112700;28;20242;-69
2022/03/30 06:06:04;;;;;;;75.40;36.80;;;8.90;99.90;;;;;;5112541;28;20303;-68
2022/03/30 06:08:31;;;;;;;73.43;37.17;;;9.00;99.90;;;;;;5112256;28;20306;-68
2022/03/30 06:10:58;;;;;;;69.07;36.03;;;9.00;99.90;;;;;;5112513;28;20294;-68
2022/03/30 06:13:27;;;;;;;71.50;34.93;;;9.10;99.90;;;;;;5112498;28;20230;-68
2022/03/30 06:15:54;;;;;;;63.70;35.20;;;9.10;99.90;;;;;;5112672;28;20203;-68
2022/03/30 06:18:22;;;;;;;69.00;37.50;;;9.20;99.90;;;;;;5112378;28;20209;-68
2022/03/30 06:20:49;;;;;;;72.33;35.73;;;9.20;99.90;;;;;;5112535;28;20625;-67
2022/03/30 06:23:16;;;;;;;69.77;34.60;;;9.20;99.90;;;;;;5111859;28;20238;-69
2022/03/30 06:25:43;;;;;;;72.03;35.40;;;9.20;99.90;;;;;;5112439;28;20210;-69
2022/03/30 06:28:11;;;;;;;65.73;32.57;;;9.30;99.90;;;;;;5111910;28;20223;-68
2022/03/30 06:30:40;;;;;;;66.57;32.80;;;9.30;99.90;;;;;;5112182;28;20216;-68
2022/03/30 06:33:07;;;;;;;60.20;31.87;;;9.30;99.90;;;;;;5111910;28;20227;-67
2022/03/30 06:35:35;;;;;;;65.83;32.40;;;9.40;99.90;;;;;;5112064;28;20199;-68
2022/03/30 06:38:03;;;;;;;71.63;33.93;;;9.40;99.90;;;;;;5112417;28;20230;-69
2022/03/30 06:40:30;;;;;;;62.70;33.10;;;9.40;99.90;;;;;;5112186;28;20230;-68
2022/03/30 06:43:00;;;;;;;67.63;33.53;;;9.50;99.90;;;;;;5112391;28;20200;-69
2022/03/30 06:45:27;;;;;;;62.80;32.57;;;9.50;99.90;;;;;;5112325;28;20714;-68
2022/03/30 06:47:56;;;;;;;64.87;31.93;;;9.50;99.90;;;;;;5112193;28;20203;-68
2022/03/30 06:50:24;;;;;;;65.33;31.80;;;9.60;99.90;;;;;;5111839;28;20246;-69
2022/03/30 06:52:51;;;;;;;59.63;31.17;;;9.60;99.90;;;;;;5111712;28;20222;-68
2022/03/30 06:55:19;;;;;;;57.40;30.03;;;9.60;99.90;;;;;;5112122;28;20665;-69
2022/03/30 06:57:47;;;;;;;60.43;27.80;;;9.60;99.90;;;;;;5111743;28;20207;-68
2022/03/30 07:00:15;;;;;;;53.10;27.37;;;9.70;99.90;;;;;;5111845;28;20205;-69
2022/03/30 07:02:43;;;;;;;54.03;27.77;;;9.70;99.90;;;;;;5111912;28;20260;-68
2022/03/30 07:05:12;;;;;;;53.57;26.00;;;9.70;99.90;;;;;;5111586;28;20252;-69
2022/03/30 07:10:27;;;;;;;47.33;25.60;;;9.80;99.90;;;;;;5111997;28;20203;-68
2022/03/30 07:12:55;;;;;;;54.17;27.53;;;9.80;99.90;;;;;;5116260;28;20215;-69
2022/03/30 07:15:23;;;;;;;50.33;26.97;;;9.80;99.90;;;;;;5115542;28;20215;-73
2022/03/30 07:17:51;;;;;;;53.30;26.73;;;9.90;99.90;;;;;;5115745;28;20207;-70
2022/03/30 07:20:22;;;;;;;56.10;28.23;;;9.90;99.90;;;;;;5115544;28;20206;-69
2022/03/30 07:22:50;;;;;;;57.27;28.53;;;9.90;99.90;;;;;;5115443;28;20206;-69
2022/03/30 07:25:19;;;;;;;53.37;27.57;;;9.90;99.90;;;;;;5115364;28;20196;-69
2022/03/30 07:27:50;;;;;;;50.90;26.70;;;9.90;99.90;;;;;;5115710;28;20226;-67
2022/03/30 07:30:19;;;;;;;59.07;28.60;;;9.90;99.90;;;;;;5115338;28;20192;-68
2022/03/30 07:32:48;;;;;;;52.63;28.00;;;10.00;99.90;;;;;;5115592;28;20763;-69
2022/03/30 07:35:17;;;;;;;52.67;26.97;;;10.00;99.90;;;;;;5115099;28;20203;-69
2022/03/30 07:37:47;;;;;;;50.20;26.63;;;10.10;99.90;;;;;;5115473;28;20286;-68
2022/03/30 07:40:17;;;;;;;51.70;27.23;;;10.10;99.90;;;;;;5115079;28;20237;-68
2022/03/30 07:42:45;;;;;;;53.53;26.53;;;10.20;99.90;;;;;;5115235;28;20547;-70
2022/03/30 07:45:13;;;;;;;47.53;26.33;;;10.20;99.90;;;;;;5115391;28;20696;-68
2022/03/30 07:47:40;;;;;;;48.77;25.13;;;10.20;99.90;;;;;;5115053;28;20363;-68
2022/03/30 07:50:09;;;;;;;42.13;23.50;;;10.30;99.90;;;;;;5115017;28;20203;-68
2022/03/30 07:52:36;;;;;;;51.57;26.67;;;10.40;99.90;;;;;;5115051;28;20201;-69
2022/03/30 07:55:07;;;;;;;45.13;24.53;;;10.40;99.90;;;;;;5115173;28;20545;-69
2022/03/30 07:57:36;;;;;;;47.13;24.27;;;10.40;99.90;;;;;;5114894;28;20214;-68
2022/03/30 08:00:07;;;;;;;49.40;26.40;;;10.50;99.90;;;;;;5114990;28;20546;-69
2022/03/30 08:02:35;;;;;;;44.73;25.43;;;10.60;99.90;;;;;;5115205;28;20633;-68
2022/03/30 08:05:03;;;;;;;49.10;26.17;;;10.60;99.90;;;;;;5114643;28;20208;-68
2022/03/30 08:07:31;;;;;;;47.87;26.17;;;10.70;99.90;;;;;;5115062;28;20223;-69
2022/03/30 08:09:59;;;;;;;45.83;25.40;;;10.70;99.90;;;;;;5114585;28;20210;-67
2022/03/30 08:12:28;;;;;;;46.00;25.43;;;10.80;99.90;;;;;;5114626;28;20234;-67
2022/03/30 08:14:55;;;;;;;45.70;24.50;;;10.80;99.90;;;;;;5114404;28;20211;-69
2022/03/30 08:17:24;;;;;;;45.47;24.20;;;10.90;99.90;;;;;;5114834;28;20213;-68
2022/03/30 08:19:51;;;;;;;43.20;24.30;;;10.90;99.90;;;;;;5115055;28;20734;-69
2022/03/30 08:22:28;;;;;;;40.33;23.47;;;10.90;99.90;;;;;;5114103;28;20206;-69
2022/03/30 08:24:56;;;;;;;41.73;24.73;;;11.00;99.90;;;;;;5114286;28;20239;-70
2022/03/30 08:27:26;;;;;;;38.37;22.17;;;11.00;99.90;;;;;;5114557;28;20324;-69
2022/03/30 08:29:55;;;;;;;44.53;22.33;;;11.00;99.90;;;;;;5114406;28;20251;-68
2022/03/30 08:32:24;;;;;;;43.30;22.27;;;11.00;99.90;;;;;;5114140;28;20230;-68
2022/03/30 08:34:53;;;;;;;38.37;20.43;;;11.00;99.90;;;;;;5114011;28;20234;-66
2022/03/30 08:37:21;;;;;;;36.80;20.37;;;11.10;99.90;;;;;;5114152;28;20203;-69
2022/03/30 08:39:51;;;;;;;31.43;17.83;;;11.10;99.90;;;;;;5114376;28;20234;-68
2022/03/30 08:42:19;;;;;;;31.20;17.90;;;11.10;99.90;;;;;;5114046;28;20212;-69
2022/03/30 08:44:49;;;;;;;29.87;17.30;;;11.20;99.90;;;;;;5113898;28;20207;-69
2022/03/30 08:47:18;;;;;;;29.30;16.97;;;11.10;99.90;;;;;;5113890;28;20234;-68
2022/03/30 08:49:47;;;;;;;31.83;18.27;;;11.10;99.90;;;;;;5061649;28;20669;-68
2022/03/30 08:52:18;;;;;;;33.60;18.40;;;11.20;99.90;;;;;;5095568;28;20214;-68
2022/03/30 08:54:47;;;;;;;34.83;19.27;;;11.20;99.90;;;;;;5113812;28;20227;-68
2022/03/30 08:57:15;;;;;;;35.83;18.27;;;11.20;99.90;;;;;;5113728;28;20207;-68
2022/03/30 08:59:58;;;;;;;36.37;20.30;;;11.20;99.90;;;;;;5113567;28;20199;-69
2022/03/30 09:02:34;;;;;;;34.87;19.00;;;11.20;99.90;;;;;;5113782;28;20253;-68
2022/03/30 09:05:14;;;;;;;33.20;18.80;;;11.10;99.90;;;;;;5113550;28;20183;-68
2022/03/30 09:07:43;;;;;;;36.73;19.97;;;11.10;99.90;;;;;;5113681;28;20187;-68
2022/03/30 09:10:15;;;;;;;33.93;20.00;;;11.00;99.90;;;;;;5113077;28;20213;-68
2022/03/30 09:12:44;;;;;;;39.40;21.17;;;10.90;99.90;;;;;;5095293;28;20268;-67
2022/03/30 09:15:14;;;;;;;39.47;20.27;;;10.90;99.90;;;;;;5113738;28;20619;-67
2022/03/30 09:17:44;;;;;;;35.13;20.57;;;10.90;99.90;;;;;;5113354;28;20207;-68
2022/03/30 09:20:17;;;;;;;38.67;21.30;;;10.80;99.90;;;;;;5113318;28;20207;-67
2022/03/30 09:22:49;;;;;;;41.60;21.87;;;10.80;99.90;;;;;;5113030;28;20237;-68
2022/03/30 09:25:17;;;;;;;40.47;21.93;;;10.70;99.90;;;;;;5113312;28;20183;-68
2022/03/30 09:27:46;;;;;;;42.67;22.90;;;10.70;99.90;;;;;;5113063;28;20223;-67
2022/03/30 09:30:15;;;;;;;42.13;21.80;;;10.70;99.90;;;;;;5113091;28;20200;-69
2022/03/30 09:32:45;;;;;;;39.53;22.73;;;10.70;99.90;;;;;;5060602;28;20254;-69
2022/03/30 09:35:24;;;;;;;43.07;23.63;;;10.70;99.90;;;;;;5112778;28;20223;-70
2022/03/30 09:38:07;;;;;;;42.57;23.33;;;10.60;99.90;;;;;;5112913;28;20240;-68
2022/03/30 09:40:40;;;;;;;45.93;24.67;;;10.60;99.90;;;;;;5113353;28;20755;-68
2022/03/30 09:43:13;;;;;;;45.57;23.97;;;10.60;99.90;;;;;;5094660;28;20214;-70
2022/03/30 09:45:40;;;;;;;48.93;23.40;;;10.50;99.90;;;;;;5113236;28;20203;-68
2022/03/30 09:48:14;;;;;;;45.47;24.57;;;10.50;99.90;;;;;;5111610;28;20213;-68
2022/03/30 09:50:50;;;;;;;45.67;24.10;;;10.50;99.90;;;;;;5112915;28;20526;-67
2022/03/30 09:53:20;;;;;;;45.37;23.50;;;10.50;99.90;;;;;;5112721;28;20252;-68
2022/03/30 09:55:58;;;;;;;43.30;23.53;;;10.40;99.90;;;;;;5112677;28;20665;-68
2022/03/30 09:58:27;;;;;;;47.67;24.07;;;10.30;99.90;;;;;;5112687;28;20338;-68
2022/03/30 10:01:08;;;;;;;46.67;23.53;;;10.30;99.90;;;;;;5112420;28;20203;-69
2022/03/30 10:03:43;;;;;;;43.23;22.27;;;10.30;99.90;;;;;;5112531;28;20187;-68
2022/03/30 10:06:11;;;;;;;42.93;21.67;;;10.20;99.90;;;;;;5112836;28;20191;-69
2022/03/30 10:08:42;;;;;;;39.00;21.57;;;10.20;99.90;;;;;;5094127;28;20207;-70
2022/03/30 10:11:10;;;;;;;39.87;21.17;;;10.20;99.90;;;;;;5112838;28;20201;-68
2022/03/30 10:13:38;;;;;;;35.00;19.70;;;10.20;99.90;;;;;;5112453;28;20227;-69
2022/03/30 10:16:08;;;;;;;29.90;18.30;;;10.30;99.90;;;;;;5112374;28;20204;-68
2022/03/30 10:18:35;;;;;;;34.90;20.07;;;10.30;99.90;;;;;;5112396;28;20404;-69
2022/03/30 10:21:22;;;;;;;33.03;19.70;;;10.30;99.90;;;;;;5112396;28;20207;-67
2022/03/30 10:24:24;;;;;;;35.87;20.07;;;10.20;99.90;;;;;;5112077;28;20231;-69
2022/03/30 10:27:00;;;;;;;36.00;20.43;;;10.10;99.90;;;;;;5058401;28;20597;-68
2022/03/30 10:29:30;;;;;;;35.50;19.90;;;10.10;99.90;;;;;;5112481;28;20551;-68
2022/03/30 10:32:15;;;;;;;35.53;20.43;;;10.00;99.90;;;;;;5112365;28;20561;-68
2022/03/30 10:34:50;;;;;;;34.97;20.37;;;10.00;99.90;;;;;;5111916;28;20211;-69
2022/03/30 10:37:27;;;;;;;36.23;20.33;;;10.00;99.90;;;;;;5112110;28;20195;-68
2022/03/30 10:39:56;;;;;;;32.70;19.47;;;10.00;99.90;;;;;;5111920;28;20211;-69
2022/03/30 10:42:24;;;;;;;31.10;18.80;;;10.00;99.90;;;;;;5112111;28;20207;-69
2022/03/30 10:44:57;;;;;;;34.13;19.53;;;10.00;99.90;;;;;;5112952;28;20206;-68
2022/03/30 10:47:27;;;;;;;35.20;19.20;;;10.00;99.90;;;;;;5116230;28;20198;-69
2022/03/30 10:49:56;;;;;;;33.93;20.00;;;10.00;99.90;;;;;;5115949;28;20343;-68
2022/03/30 10:52:37;;;;;;;34.30;20.10;;;10.10;99.90;;;;;;5116202;28;20215;-68
2022/03/30 10:55:31;;;;;;;37.20;20.50;;;10.10;99.90;;;;;;5116079;28;20219;-68
2022/03/30 10:58:02;;;;;;;33.73;19.33;;;10.10;99.90;;;;;;5116514;28;20565;-68
2022/03/30 11:00:34;;;;;;;35.00;20.40;;;10.20;99.90;;;;;;5116385;28;20226;-68
2022/03/30 11:03:17;;;;;;;35.57;20.27;;;10.20;99.90;;;;;;5115971;28;20192;-67
2022/03/30 11:05:47;;;;;;;33.53;18.87;;;10.10;99.90;;;;;;5116156;28;20199;-69
2022/03/30 11:09:07;;;;;;;31.40;19.20;;;10.20;99.90;;;;;;5115913;28;20207;-69
2022/03/30 11:11:40;;;;;;;32.23;18.93;;;10.10;99.90;;;;;;5115718;28;20191;-68
2022/03/30 11:14:28;;;;;;;32.07;18.37;;;10.20;99.90;;;;;;5097461;28;20248;-68
2022/03/30 11:16:59;;;;;;;33.27;18.17;;;10.40;99.90;;;;;;5115832;28;20188;-68
2022/03/30 11:19:30;;;;;;;29.23;17.37;;;10.50;99.90;;;;;;5115985;28;20607;-68
2022/03/30 11:22:13;;;;;;;28.17;16.90;;;10.50;99.90;;;;;;5098125;28;20184;-68
2022/03/30 11:24:42;;;;;;;27.30;16.27;;;10.60;99.90;;;;;;5112797;28;20227;-68
2022/03/30 11:27:24;;;;;;;26.57;16.50;;;10.70;99.90;;;;;;5115840;28;20519;-68
2022/03/30 11:30:00;;;;;;;27.73;15.93;;;10.70;99.90;;;;;;5115364;28;20233;-68
2022/03/30 11:33:03;;;;;;;26.43;15.80;;;10.70;99.90;;;;;;5115361;28;20187;-69
2022/03/30 11:35:34;;;;;;;25.43;14.30;;;10.80;99.90;;;;;;5115252;28;20300;-68
2022/03/30 11:38:21;;;;;;;23.83;14.03;;;10.90;99.90;;;;;;5115301;28;20206;-69
2022/03/30 11:40:49;;;;;;;22.90;13.57;;;11.00;99.90;;;;;;5115521;28;20671;-68
2022/03/30 11:43:19;;;;;;;20.77;13.27;;;11.00;99.90;;;;;;5063630;28;20204;-68
2022/03/30 11:45:49;;;;;;;22.53;12.87;;;11.10;99.90;;;;;;5115097;28;20294;-68
2022/03/30 11:48:16;;;;;;;23.53;13.40;;;11.10;99.90;;;;;;5115426;28;20714;-69
2022/03/30 11:50:46;;;;;;;21.63;13.20;;;11.10;99.90;;;;;;5115051;28;20219;-69
2022/03/30 11:53:15;;;;;;;21.37;13.27;;;11.00;99.90;;;;;;5115486;28;20570;-69
2022/03/30 11:55:53;;;;;;;22.10;13.97;;;11.00;99.90;;;;;;5114823;28;20230;-67
2022/03/30 11:58:35;;;;;;;24.90;14.10;;;11.00;99.90;;;;;;5114744;28;20560;-68
2022/03/30 12:01:05;;;;;;;22.90;13.57;;;11.00;99.90;;;;;;5115055;28;20188;-68
2022/03/30 12:03:35;;;;;;;22.83;14.27;;;11.00;99.90;;;;;;5114819;28;20196;-68
2022/03/30 12:06:05;;;;;;;24.10;14.53;;;11.00;99.90;;;;;;5096555;28;20214;-67
2022/03/30 12:08:42;;;;;;;21.47;13.50;;;11.00;99.90;;;;;;5114600;28;20205;-68
2022/03/30 12:11:10;;;;;;;20.90;12.93;;;10.90;99.90;;;;;;5114986;28;20598;-68
2022/03/30 12:13:39;;;;;;;21.90;13.03;;;10.90;99.90;;;;;;5114445;28;20215;-67
2022/03/30 12:16:08;;;;;;;20.97;13.83;;;10.90;99.90;;;;;;5114829;28;20586;-68
2022/03/30 12:18:44;;;;;;;21.83;13.23;;;10.80;99.90;;;;;;5114426;28;20200;-69
2022/03/30 12:21:14;;;;;;;19.50;12.23;;;10.80;99.90;;;;;;5114635;28;20188;-68
2022/03/30 12:23:55;;;;;;;21.80;12.17;;;10.80;99.90;;;;;;5114196;28;20304;-67
2022/03/30 12:26:22;;;;;;;21.33;12.27;;;10.70;99.90;;;;;;5114236;28;20256;-69
2022/03/30 12:28:52;;;;;;;22.83;13.50;;;10.70;99.90;;;;;;5114091;28;20203;-69
2022/03/30 12:31:19;;;;;;;21.50;13.23;;;10.70;99.90;;;;;;5114198;28;20207;-67
2022/03/30 12:33:50;;;;;;;21.50;13.20;;;10.70;99.90;;;;;;5114166;28;20582;-69
2022/03/30 12:36:22;;;;;;;23.23;12.70;;;10.60;99.90;;;;;;5115494;28;20184;-68
2022/03/30 12:38:51;;;;;;;19.83;12.33;;;10.60;99.90;;;;;;5115281;28;20199;-66
2022/03/30 12:41:28;;;;;;;25.17;13.50;;;10.60;99.90;;;;;;5113873;28;20205;-66
2022/03/30 12:44:00;;;;;;;22.37;12.63;;;10.60;99.90;;;;;;5114301;28;20211;-66
2022/03/30 12:46:30;;;;;;;23.00;13.50;;;10.70;99.90;;;;;;5062055;28;20217;-66
2022/03/30 12:49:05;;;;;;;22.70;13.57;;;10.70;99.90;;;;;;5113919;28;20233;-65
2022/03/30 12:51:33;;;;;;;20.50;13.43;;;10.70;99.90;;;;;;5113843;28;20191;-65